createdAt,value
2018-04-02T00:00:00.866Z,100159.07
2018-04-02T00:02:28.318Z,100163.72
2018-04-02T00:04:55.762Z,100161.90
2018-04-02T00:07:23.274Z,100167.23
2018-04-02T00:09:50.733Z,100167.66
2018-04-02T00:12:18.621Z,100162.94
2018-04-02T00:14:46.146Z,100160.28
2018-04-02T00:17:13.745Z,100153.37
2018-04-02T00:19:41.213Z,100151.94
2018-04-02T00:22:08.665Z,100146.24
2018-04-02T00:24:36.474Z,100148.57
2018-04-02T00:27:03.921Z,100153.08
2018-04-02T00:29:31.381Z,100151.84
2018-04-02T00:31:58.872Z,100143.67
2018-04-02T00:34:26.329Z,100151.86
2018-04-02T00:36:54.129Z,100150.16
2018-04-02T00:39:21.591Z,100148.84
2018-04-02T00:41:49.045Z,100150.30
2018-04-02T00:44:16.521Z,100148.61
2018-04-02T00:46:43.988Z,100140.89
2018-04-02T00:49:11.669Z,100146.88
2018-04-02T00:51:39.141Z,100138.95
2018-04-02T00:54:06.601Z,100140.67
2018-04-02T00:56:34.393Z,100144.30
2018-04-02T00:59:02.155Z,100139.78
2018-04-02T01:01:29.633Z,100141.89
2018-04-02T01:03:57.114Z,100142.83
2018-04-02T01:06:24.565Z,100140.78
2018-04-02T01:08:52.259Z,100139.45
2018-04-02T01:11:19.703Z,100154.73
2018-04-02T01:13:47.175Z,100147.09
2018-04-02T01:16:14.638Z,100149.56
2018-04-02T01:18:42.091Z,100149.72
2018-04-02T01:21:09.913Z,100154.30
2018-04-02T01:23:37.365Z,100144.52
2018-04-02T01:26:04.827Z,100146.39
2018-04-02T01:28:32.324Z,100141.09
2018-04-02T01:30:59.781Z,100142.68
2018-04-02T01:33:27.665Z,100140.61
2018-04-02T01:35:55.131Z,100139.78
2018-04-02T01:38:22.606Z,100139.83
2018-04-02T01:40:50.073Z,100142.45
2018-04-02T01:43:17.554Z,100140.77
2018-04-02T01:45:46.154Z,100144.23
2018-04-02T01:48:13.621Z,100147.03
2018-04-02T01:50:41.069Z,100144.17
2018-04-02T01:53:08.572Z,100144.28
2018-04-02T01:55:36.025Z,100147.34
2018-04-02T01:58:03.509Z,100140.92
2018-04-02T02:00:30.972Z,100139.52
2018-04-02T02:02:58.425Z,100140.44
2018-04-02T02:05:25.928Z,100144.34
2018-04-02T02:07:53.397Z,100137.74
2018-04-02T02:10:20.888Z,100128.59
2018-04-02T02:12:48.332Z,100125.13
2018-04-02T02:15:15.787Z,100124.76
2018-04-02T02:17:43.259Z,100121.13
2018-04-02T02:20:10.734Z,100122.56
2018-04-02T02:22:38.221Z,100124.42
2018-04-02T02:25:05.682Z,100118.22
2018-04-02T02:27:33.137Z,100115.57
2018-04-02T02:30:00.613Z,100119.02
2018-04-02T02:32:28.073Z,100115.08
2018-04-02T02:34:55.964Z,100112.94
2018-04-02T02:37:23.425Z,100109.59
2018-04-02T02:39:50.906Z,100104.64
2018-04-02T02:42:18.381Z,100108.14
2018-04-02T02:44:45.868Z,100116.11
2018-04-02T02:47:13.358Z,100118.71
2018-04-02T02:49:40.838Z,100113.60
2018-04-02T02:52:08.330Z,100112.73
2018-04-02T02:54:35.803Z,100105.23
2018-04-02T02:57:03.247Z,100107.95
2018-04-02T02:59:30.870Z,100103.95
2018-04-02T03:01:58.316Z,100101.89
2018-04-02T03:04:25.818Z,100101.84
2018-04-02T03:06:53.304Z,100105.82
2018-04-02T03:09:20.758Z,100100.11
2018-04-02T03:11:48.258Z,100102.81
2018-04-02T03:14:15.697Z,100097.56
2018-04-02T03:16:43.158Z,100095.34
2018-04-02T03:19:10.626Z,100090.11
2018-04-02T03:21:38.082Z,100084.39
2018-04-02T03:24:05.741Z,100077.85
2018-04-02T03:26:33.197Z,100075.70
2018-04-02T03:29:00.695Z,100075.23
2018-04-02T03:31:28.158Z,100080.97
2018-04-02T03:33:55.609Z,100076.19
2018-04-02T03:36:23.285Z,100077.09
2018-04-02T03:38:50.758Z,100076.22
2018-04-02T03:41:18.207Z,100070.53
2018-04-02T03:43:45.691Z,100063.98
2018-04-02T03:46:13.138Z,100061.77
2018-04-02T03:48:40.728Z,100063.52
2018-04-02T03:51:08.197Z,100060.02
2018-04-02T03:53:35.644Z,100065.26
2018-04-02T03:56:03.118Z,100060.91
2018-04-02T03:58:30.583Z,100065.25
2018-04-02T04:00:58.069Z,100062.20
2018-04-02T04:03:25.518Z,100064.84
2018-04-02T04:05:53.003Z,100056.97
2018-04-02T04:08:20.478Z,100056.06
2018-04-02T04:10:47.937Z,100053.91
2018-04-02T04:13:15.741Z,100051.70
2018-04-02T04:15:43.208Z,100045.59
2018-04-02T04:18:10.742Z,100046.89
2018-04-02T04:20:38.209Z,100047.73
2018-04-02T04:23:05.676Z,100053.00
2018-04-02T04:25:33.278Z,100050.41
2018-04-02T04:28:00.746Z,100056.09
2018-04-02T04:30:28.235Z,100055.64
2018-04-02T04:32:55.706Z,100053.87
2018-04-02T04:35:23.153Z,100052.98
2018-04-02T04:37:50.770Z,100052.56
2018-04-02T04:40:18.239Z,100050.38
2018-04-02T04:42:45.713Z,100053.00
2018-04-02T04:45:13.204Z,100061.73
2018-04-02T04:47:40.661Z,100065.61
2018-04-02T04:50:08.133Z,100069.53
2018-04-02T04:52:35.581Z,100070.85
2018-04-02T04:55:03.074Z,100068.27
2018-04-02T04:57:30.582Z,100069.45
2018-04-02T04:59:58.033Z,100069.94
2018-04-02T05:02:25.738Z,100066.44
2018-04-02T05:04:53.201Z,100070.85
2018-04-02T05:07:20.686Z,100062.18
2018-04-02T05:09:48.173Z,100059.53
2018-04-02T05:12:15.666Z,100061.28
2018-04-02T05:14:43.197Z,100060.86
2018-04-02T05:17:10.626Z,100063.52
2018-04-02T05:19:38.076Z,100055.66
2018-04-02T05:22:05.547Z,100062.19
2018-04-02T05:24:33.000Z,100058.68
2018-04-02T05:27:00.478Z,100054.33
2018-04-02T05:29:27.925Z,100058.72
2018-04-02T05:31:55.373Z,100058.29
2018-04-02T05:34:22.845Z,100054.36
2018-04-02T05:36:50.297Z,100056.98
2018-04-02T05:39:18.072Z,100059.14
2018-04-02T05:41:45.512Z,100049.52
2018-04-02T05:44:13.014Z,100053.47
2018-04-02T05:46:40.489Z,100056.06
2018-04-02T05:49:07.937Z,100052.95
2018-04-02T05:51:35.421Z,100051.64
2018-04-02T05:54:02.901Z,100049.41
2018-04-02T05:56:30.366Z,100043.28
2018-04-02T05:58:57.850Z,100042.86
2018-04-02T06:01:25.297Z,100049.00
2018-04-02T06:03:52.781Z,100057.69
2018-04-02T06:06:20.230Z,100047.09
2018-04-02T06:08:47.681Z,100042.28
2018-04-02T06:11:15.173Z,100049.64
2018-04-02T06:13:42.617Z,100048.24
2018-04-02T06:16:10.233Z,100050.26
2018-04-02T06:18:37.688Z,100048.95
2018-04-02T06:21:05.158Z,100045.77
2018-04-02T06:23:32.650Z,100037.92
2018-04-02T06:26:00.109Z,100043.95
2018-04-02T06:28:27.873Z,100032.53
2018-04-02T06:30:55.321Z,100027.67
2018-04-02T06:33:22.797Z,100030.20
2018-04-02T06:35:50.265Z,100023.55
2018-04-02T06:38:17.714Z,100022.16
2018-04-02T06:40:45.200Z,100020.74
2018-04-02T06:43:12.665Z,100020.70
2018-04-02T06:45:40.125Z,100016.66
2018-04-02T06:48:07.609Z,100010.92
2018-04-02T06:50:35.065Z,100011.70
2018-04-02T06:53:02.721Z,100016.39
2018-04-02T06:55:30.169Z,100017.65
2018-04-02T06:57:57.666Z,100009.81
2018-04-02T07:00:25.137Z,100006.62
2018-04-02T07:02:52.590Z,100011.84
2018-04-02T07:05:20.230Z,100010.78
2018-04-02T07:07:47.681Z,100009.03
2018-04-02T07:10:15.149Z,100001.08
2018-04-02T07:12:42.641Z,99997.09
2018-04-02T07:15:10.099Z,99999.25
2018-04-02T07:17:37.790Z,99996.88
2018-04-02T07:20:05.242Z,99992.66
2018-04-02T07:22:32.701Z,99992.02
2018-04-02T07:25:00.188Z,99990.43
2018-04-02T07:27:27.637Z,99991.25
2018-04-02T07:29:55.338Z,99993.13
2018-04-02T07:32:22.790Z,99984.79
2018-04-02T07:34:50.234Z,99989.70
2018-04-02T07:37:17.703Z,99994.31
2018-04-02T07:39:45.167Z,99994.52
2018-04-02T07:42:13.748Z,99995.68
2018-04-02T07:44:41.387Z,99991.52
2018-04-02T07:47:08.842Z,99987.61
2018-04-02T07:49:36.317Z,99984.55
2018-04-02T07:52:03.770Z,99987.30
2018-04-02T07:54:31.285Z,99987.94
2018-04-02T07:56:58.759Z,99979.20
2018-04-02T07:59:26.214Z,99978.69
2018-04-02T08:01:53.786Z,99981.33
2018-04-02T08:04:21.243Z,99970.63
2018-04-02T08:06:49.056Z,99978.37
2018-04-02T08:09:16.513Z,99972.00
2018-04-02T08:11:43.958Z,99969.84
2018-04-02T08:14:11.445Z,99966.12
2018-04-02T08:16:38.889Z,99967.30
2018-04-02T08:19:06.396Z,99970.13
2018-04-02T08:21:33.848Z,99968.75
2018-04-02T08:24:01.303Z,99965.12
2018-04-02T08:26:28.765Z,99966.14
2018-04-02T08:28:56.238Z,99965.05
2018-04-02T08:31:23.740Z,99960.30
2018-04-02T08:33:51.194Z,99954.67
2018-04-02T08:36:18.643Z,99954.92
2018-04-02T08:38:46.163Z,99945.63
2018-04-02T08:41:13.648Z,99939.59
2018-04-02T08:43:41.262Z,99937.91
2018-04-02T08:46:08.717Z,99943.38
2018-04-02T08:48:36.176Z,99945.02
2018-04-02T08:51:03.642Z,99946.94
2018-04-02T08:53:31.096Z,99952.28
2018-04-02T08:55:58.582Z,99946.47
2018-04-02T08:58:26.030Z,99945.20
2018-04-02T09:00:53.485Z,99939.09
2018-04-02T09:03:20.985Z,99943.77
2018-04-02T09:05:48.438Z,99942.45
2018-04-02T09:08:15.945Z,99932.57
2018-04-02T09:10:43.417Z,99925.70
2018-04-02T09:13:10.915Z,99924.13
2018-04-02T09:15:38.373Z,99924.02
2018-04-02T09:18:05.832Z,99923.84
2018-04-02T09:20:33.546Z,99923.02
2018-04-02T09:23:01.012Z,99925.80
2018-04-02T09:25:28.495Z,99924.51
2018-04-02T09:27:55.965Z,99914.70
2018-04-02T09:30:23.416Z,99911.81
2018-04-02T09:32:50.997Z,99901.30
2018-04-02T09:35:18.459Z,99899.19
2018-04-02T09:37:45.909Z,99897.45
2018-04-02T09:40:13.381Z,99897.02
2018-04-02T09:42:40.866Z,99892.66
2018-04-02T09:45:08.505Z,99889.41
2018-04-02T09:47:35.970Z,99892.93
2018-04-02T09:50:03.430Z,99891.05
2018-04-02T09:52:30.938Z,99879.94
2018-04-02T09:54:58.394Z,99881.80
2018-04-02T09:57:26.071Z,99875.14
2018-04-02T09:59:53.514Z,99864.55
2018-04-02T10:02:21.784Z,99861.84
2018-04-02T10:04:49.294Z,99852.42
2018-04-02T10:07:16.744Z,99853.52
2018-04-02T10:09:44.321Z,99847.39
2018-04-02T10:12:11.773Z,99846.67
2018-04-02T10:14:39.221Z,99839.13
2018-04-02T10:17:06.705Z,99828.55
2018-04-02T10:19:34.291Z,99823.77
2018-04-02T10:22:01.793Z,99818.43
2018-04-02T10:24:29.245Z,99819.36
2018-04-02T10:26:56.698Z,99808.03
2018-04-02T10:29:24.173Z,99808.83
2018-04-02T10:31:51.613Z,99793.63
2018-04-02T10:34:19.243Z,99787.47
2018-04-02T10:36:46.688Z,99784.34
2018-04-02T10:39:14.129Z,99770.67
2018-04-02T10:41:41.606Z,99768.23
2018-04-02T10:44:09.049Z,99774.80
2018-04-02T10:46:36.697Z,99769.65
2018-04-02T10:49:04.137Z,99765.06
2018-04-02T10:51:31.596Z,99761.53
2018-04-02T10:53:59.069Z,99759.72
2018-04-02T10:56:26.550Z,99752.21
2018-04-02T10:58:54.025Z,99746.06
2018-04-02T11:01:21.473Z,99746.84
2018-04-02T11:03:48.929Z,99740.61
2018-04-02T11:06:16.465Z,99735.95
2018-04-02T11:08:43.943Z,99728.30
2018-04-02T11:11:11.611Z,99729.94
2018-04-02T11:13:39.053Z,99726.87
2018-04-02T11:16:06.515Z,99721.20
2018-04-02T11:18:33.995Z,99711.36
2018-04-02T11:21:01.438Z,99715.95
2018-04-02T11:23:29.135Z,99715.53
2018-04-02T11:25:56.594Z,99710.33
2018-04-02T11:28:24.046Z,99702.08
2018-04-02T11:30:51.513Z,99698.72
2018-04-02T11:33:18.992Z,99697.77
2018-04-02T11:35:46.683Z,99693.59
2018-04-02T11:38:14.131Z,99700.58
2018-04-02T11:40:41.601Z,99687.36
2018-04-02T11:43:09.071Z,99681.53
2018-04-02T11:45:36.513Z,99671.47
2018-04-02T11:48:04.347Z,99671.48
2018-04-02T11:50:31.847Z,99675.01
2018-04-02T11:52:59.314Z,99676.05
2018-04-02T11:55:26.793Z,99665.09
2018-04-02T11:57:54.246Z,99666.84
2018-04-02T12:00:21.882Z,99656.75
2018-04-02T12:02:49.350Z,99649.67
2018-04-02T12:05:16.825Z,99639.54
2018-04-02T12:07:44.285Z,99633.59
2018-04-02T12:10:11.771Z,99632.25
2018-04-02T12:12:39.357Z,99623.38
2018-04-02T12:15:06.831Z,99628.90
2018-04-02T12:17:34.305Z,99618.53
2018-04-02T12:20:01.772Z,99609.46
2018-04-02T12:22:29.229Z,99620.02
2018-04-02T12:24:57.085Z,99614.03
2018-04-02T12:27:24.559Z,99615.61
2018-04-02T12:29:52.088Z,99602.39
2018-04-02T12:32:19.559Z,99596.23
2018-04-02T12:34:47.021Z,99594.33
2018-04-02T12:37:14.522Z,99586.42
2018-04-02T12:39:41.976Z,99575.83
2018-04-02T12:42:09.443Z,99572.90
2018-04-02T12:44:36.949Z,99571.61
2018-04-02T12:47:04.461Z,99578.71
2018-04-02T12:49:31.994Z,99578.92
2018-04-02T12:51:59.479Z,99565.15
2018-04-02T12:54:26.961Z,99561.89
2018-04-02T12:56:54.439Z,99555.91
2018-04-02T12:59:21.878Z,99558.92
2018-04-02T13:01:49.566Z,99549.03
2018-04-02T13:04:17.055Z,99543.34
2018-04-02T13:06:44.496Z,99538.41
2018-04-02T13:09:11.985Z,99534.95
2018-04-02T13:11:39.433Z,99534.28
2018-04-02T13:14:07.302Z,99531.02
2018-04-02T13:16:34.765Z,99524.23
2018-04-02T13:19:02.213Z,99524.97
2018-04-02T13:21:29.723Z,99517.95
2018-04-02T13:23:57.165Z,99510.52
2018-04-02T13:26:24.877Z,99508.71
2018-04-02T13:28:52.324Z,99499.98
2018-04-02T13:31:19.770Z,99499.83
2018-04-02T13:33:47.251Z,99497.16
2018-04-02T13:36:14.710Z,99493.71
2018-04-02T13:38:42.305Z,99495.02
2018-04-02T13:41:09.761Z,99488.38
2018-04-02T13:43:37.205Z,99489.80
2018-04-02T13:46:04.671Z,99482.11
2018-04-02T13:48:32.113Z,99476.76
2018-04-02T13:50:59.813Z,99469.58
2018-04-02T13:53:27.265Z,99469.55
2018-04-02T13:55:54.701Z,99466.91
2018-04-02T13:58:22.218Z,99458.06
2018-04-02T14:00:49.653Z,99455.77
2018-04-02T14:03:17.138Z,99452.85
2018-04-02T14:05:44.590Z,99440.33
2018-04-02T14:08:12.042Z,99434.59
2018-04-02T14:10:39.551Z,99437.11
2018-04-02T14:13:07.010Z,99429.87
2018-04-02T14:15:34.492Z,99418.05
2018-04-02T14:18:01.974Z,99428.00
2018-04-02T14:20:29.420Z,99409.27
2018-04-02T14:22:56.888Z,99405.18
2018-04-02T14:25:24.383Z,99401.69
2018-04-02T14:27:51.868Z,99396.61
2018-04-02T14:30:19.345Z,99399.83
2018-04-02T14:32:46.806Z,99385.85
2018-04-02T14:35:14.288Z,99388.48
2018-04-02T14:37:41.788Z,99372.88
2018-04-02T14:40:09.281Z,99379.09
2018-04-02T14:42:36.722Z,99373.48
2018-04-02T14:45:04.187Z,99369.95
2018-04-02T14:47:31.651Z,99359.50
2018-04-02T14:49:59.097Z,99359.12
2018-04-02T14:52:26.618Z,99355.89
2018-04-02T14:54:54.059Z,99357.59
2018-04-02T14:57:21.509Z,99350.66
2018-04-02T14:59:48.993Z,99347.47
2018-04-02T15:02:16.445Z,99358.34
2018-04-02T15:04:44.183Z,99340.85
2018-04-02T15:07:11.660Z,99340.45
2018-04-02T15:09:39.134Z,99332.73
2018-04-02T15:12:06.630Z,99320.84
2018-04-02T15:14:34.054Z,99326.30
2018-04-02T15:17:01.701Z,99318.32
2018-04-02T15:19:30.086Z,99315.49
2018-04-02T15:21:57.561Z,99305.19
2018-04-02T15:24:25.027Z,99314.36
2018-04-02T15:26:53.282Z,99303.78
2018-04-02T15:29:20.779Z,99309.85
2018-04-02T15:31:48.238Z,99303.92
2018-04-02T15:34:15.688Z,99308.41
2018-04-02T15:36:43.158Z,99303.91
2018-04-02T15:39:10.626Z,99303.95
2018-04-02T15:41:38.293Z,99292.28
2018-04-02T15:44:05.740Z,99287.75
2018-04-02T15:46:33.187Z,99285.83
2018-04-02T15:49:00.674Z,99286.69
2018-04-02T15:51:28.142Z,99294.29
2018-04-02T15:53:55.901Z,99294.48
2018-04-02T15:56:23.341Z,99288.40
2018-04-02T15:58:50.809Z,99282.88
2018-04-02T16:01:18.301Z,99272.81
2018-04-02T16:03:45.774Z,99273.95
2018-04-02T16:06:13.461Z,99282.22
2018-04-02T16:08:40.897Z,99277.67
2018-04-02T16:11:08.378Z,99281.94
2018-04-02T16:13:35.837Z,99281.02
2018-04-02T16:16:03.277Z,99281.45
2018-04-02T16:18:31.134Z,99268.87
2018-04-02T16:20:58.599Z,99252.36
2018-04-02T16:23:26.054Z,99249.23
2018-04-02T16:25:53.519Z,99240.25
2018-04-02T16:28:20.964Z,99243.88
2018-04-02T16:30:48.825Z,99238.81
2018-04-02T16:33:16.233Z,99237.13
2018-04-02T16:35:43.677Z,99234.66
2018-04-02T16:38:11.141Z,99240.63
2018-04-02T16:40:38.590Z,99256.66
2018-04-02T16:43:06.097Z,99265.62
2018-04-02T16:45:33.549Z,99268.83
2018-04-02T16:48:00.997Z,99266.88
2018-04-02T16:50:28.467Z,99268.11
2018-04-02T16:52:55.929Z,99262.55
2018-04-02T16:55:23.873Z,99254.55
2018-04-02T16:57:51.397Z,99249.97
2018-04-02T17:00:18.834Z,99235.67
2018-04-02T17:02:46.301Z,99240.20
2018-04-02T17:05:13.764Z,99235.94
2018-04-02T17:07:41.230Z,99234.11
2018-04-02T17:10:08.674Z,99237.17
2018-04-02T17:12:36.188Z,99236.23
2018-04-02T17:15:03.655Z,99234.41
2018-04-02T17:17:31.098Z,99229.13
2018-04-02T17:19:58.771Z,99225.84
2018-04-02T17:22:26.499Z,99230.38
2018-04-02T17:24:53.946Z,99224.03
2018-04-02T17:27:21.414Z,99217.03
2018-04-02T17:29:48.868Z,99210.59
2018-04-02T17:32:16.374Z,99208.87
2018-04-02T17:34:43.914Z,99197.86
2018-04-02T17:37:11.381Z,99187.08
2018-04-02T17:39:38.873Z,99187.19
2018-04-02T17:42:06.342Z,99192.57
2018-04-02T17:44:33.822Z,99184.47
2018-04-02T17:47:01.328Z,99170.00
2018-04-02T17:49:28.827Z,99161.15
2018-04-02T17:51:56.315Z,99159.05
2018-04-02T17:54:24.161Z,99145.10
2018-04-02T17:56:51.637Z,99139.61
2018-04-02T17:59:19.093Z,99140.99
2018-04-02T18:01:46.606Z,99146.67
2018-04-02T18:04:14.073Z,99141.56
2018-04-02T18:06:41.543Z,99136.66
2018-04-02T18:09:09.198Z,99124.17
2018-04-02T18:11:36.717Z,99125.88
2018-04-02T18:14:04.529Z,99129.51
2018-04-02T18:16:31.998Z,99132.17
2018-04-02T18:18:59.539Z,99135.69
2018-04-02T18:21:26.982Z,99135.50
2018-04-02T18:23:54.443Z,99140.45
2018-04-02T18:26:21.889Z,99148.06
2018-04-02T18:28:49.675Z,99142.94
2018-04-02T18:31:17.287Z,99146.13
2018-04-02T18:33:44.733Z,99153.02
2018-04-02T18:36:12.230Z,99148.81
2018-04-02T18:38:39.673Z,99152.44
2018-04-02T18:41:07.189Z,99164.06
2018-04-02T18:43:34.682Z,99166.10
2018-04-02T18:46:02.161Z,99176.93
2018-04-02T18:48:29.630Z,99178.06
2018-04-02T18:50:57.074Z,99168.88
2018-04-02T18:53:24.678Z,99176.39
2018-04-02T18:55:52.125Z,99181.27
2018-04-02T18:58:19.583Z,99177.08
2018-04-02T19:00:47.052Z,99180.13
2018-04-02T19:03:14.512Z,99181.48
2018-04-02T19:05:42.113Z,99175.48
2018-04-02T19:08:09.565Z,99177.11
2018-04-02T19:10:37.014Z,99180.80
2018-04-02T19:13:04.489Z,99178.66
2018-04-02T19:15:31.945Z,99172.84
2018-04-02T19:17:59.456Z,99177.66
2018-04-02T19:20:26.923Z,99178.31
2018-04-02T19:22:54.382Z,99176.69
2018-04-02T19:25:21.861Z,99175.46
2018-04-02T19:27:49.344Z,99171.66
2018-04-02T19:30:17.070Z,99179.05
2018-04-02T19:32:44.510Z,99170.47
2018-04-02T19:35:11.997Z,99172.23
2018-04-02T19:37:39.503Z,99166.81
2018-04-02T19:40:06.962Z,99168.66
2018-04-02T19:42:34.609Z,99164.09
2018-04-02T19:45:02.107Z,99157.04
2018-04-02T19:47:29.606Z,99158.12
2018-04-02T19:49:57.107Z,99154.31
2018-04-02T19:52:24.568Z,99156.48
2018-04-02T19:54:52.066Z,99149.65
2018-04-02T19:57:19.923Z,99147.07
2018-04-02T19:59:47.408Z,99152.59
2018-04-02T20:02:14.879Z,99155.86
2018-04-02T20:04:42.357Z,99148.37
2018-04-02T20:07:09.886Z,99147.87
2018-04-02T20:09:37.361Z,99144.75
2018-04-02T20:12:04.849Z,99154.33
2018-04-02T20:14:32.324Z,99148.52
2018-04-02T20:16:59.798Z,99159.09
2018-04-02T20:19:27.305Z,99152.53
2018-04-02T20:21:54.799Z,99155.52
2018-04-02T20:24:22.274Z,99150.68
2018-04-02T20:26:49.792Z,99137.97
2018-04-02T20:29:17.329Z,99131.34
2018-04-02T20:31:44.978Z,99121.62
2018-04-02T20:34:12.446Z,99122.27
2018-04-02T20:36:39.929Z,99132.28
2018-04-02T20:39:07.442Z,99127.75
2018-04-02T20:41:34.897Z,99125.80
2018-04-02T20:44:02.390Z,99124.36
2018-04-02T20:46:29.864Z,99131.86
2018-04-02T20:48:57.362Z,99133.84
2018-04-02T20:51:24.849Z,99143.03
2018-04-02T20:53:52.311Z,99141.44
2018-04-02T20:56:19.839Z,99140.88
2018-04-02T20:58:47.307Z,99141.05
2018-04-02T21:01:14.778Z,99145.34
2018-04-02T21:03:42.259Z,99139.84
2018-04-02T21:06:09.704Z,99137.34
2018-04-02T21:08:37.174Z,99142.74
2018-04-02T21:11:04.621Z,99135.66
2018-04-02T21:13:32.088Z,99134.56
2018-04-02T21:15:59.566Z,99135.50
2018-04-02T21:18:27.004Z,99137.26
2018-04-02T21:20:54.775Z,99130.94
2018-04-02T21:23:22.230Z,99130.78
2018-04-02T21:25:49.693Z,99126.82
2018-04-02T21:28:17.178Z,99126.83
2018-04-02T21:30:44.653Z,99127.06
2018-04-02T21:33:12.161Z,99120.78
2018-04-02T21:35:39.598Z,99118.19
2018-04-02T21:38:07.116Z,99126.53
2018-04-02T21:40:34.613Z,99122.11
2018-04-02T21:43:02.058Z,99115.52
2018-04-02T21:45:29.531Z,99119.36
2018-04-02T21:47:56.989Z,99117.16
2018-04-02T21:50:24.450Z,99113.58
2018-04-02T21:52:51.920Z,99110.31
2018-04-02T21:55:19.397Z,99113.14
2018-04-02T21:57:47.126Z,99106.28
2018-04-02T22:00:14.583Z,99104.17
2018-04-02T22:02:42.032Z,99101.52
2018-04-02T22:05:09.493Z,99103.69
2018-04-02T22:07:36.933Z,99091.55
2018-04-02T22:10:04.413Z,99097.84
2018-04-02T22:12:31.857Z,99098.39
2018-04-02T22:14:59.362Z,99101.00
2018-04-02T22:17:26.802Z,99092.98
2018-04-02T22:19:54.252Z,99100.94
2018-04-02T22:22:21.725Z,99099.22
2018-04-02T22:24:49.165Z,99098.09
2018-04-02T22:27:16.939Z,99093.72
2018-04-02T22:29:44.409Z,99095.95
2018-04-02T22:32:11.869Z,99097.19
2018-04-02T22:34:39.347Z,99092.75
2018-04-02T22:37:06.791Z,99096.75
2018-04-02T22:39:34.258Z,99103.67
2018-04-02T22:42:01.733Z,99106.16
2018-04-02T22:44:29.182Z,99109.12
2018-04-02T22:46:56.855Z,99107.56
2018-04-02T22:49:24.297Z,99108.81
2018-04-02T22:51:51.772Z,99107.14
2018-04-02T22:54:19.232Z,99109.33
2018-04-02T22:56:46.677Z,99111.54
2018-04-02T22:59:14.150Z,99105.91
2018-04-02T23:01:41.593Z,99112.34
2018-04-02T23:04:09.062Z,99108.06
2018-04-02T23:06:36.507Z,99112.16
2018-04-02T23:09:03.969Z,99113.03
2018-04-02T23:11:31.430Z,99120.98
2018-04-02T23:13:58.916Z,99122.39
2018-04-02T23:16:26.553Z,99125.09
2018-04-02T23:18:54.010Z,99123.56
2018-04-02T23:21:21.482Z,99127.43
2018-04-02T23:23:48.953Z,99130.61
2018-04-02T23:26:16.401Z,99132.30
2018-04-02T23:28:44.048Z,99130.06
2018-04-02T23:31:11.486Z,99130.22
2018-04-02T23:33:38.938Z,99132.21
2018-04-02T23:36:06.413Z,99137.77
2018-04-02T23:38:33.941Z,99136.59
2018-04-02T23:41:01.554Z,99131.86
2018-04-02T23:43:29.009Z,99141.28
2018-04-02T23:45:56.445Z,99135.61
2018-04-02T23:48:23.925Z,99138.38
2018-04-02T23:50:51.397Z,99136.23
2018-04-02T23:53:18.886Z,99138.16
2018-04-02T23:55:46.349Z,99140.45
2018-04-02T23:58:13.800Z,99148.51
